Marshall Army Air Field Fort Riley(Junction City) US
ICAO: KFRI
IATA: FRI
Category: Medium
Scheduled Services: No

Elevation: 1065 ft
TransAlt. 18000 ft.

Airport Communications:
VFR ADVSY SVC:126.2
KANSAS CITY CNTR:127.35
ASOS:118.375
CTAF:126.2
RANGE CON:40.8
OPS:40.55

KFRI Zoom In..

If you have problems with the map follow the link
https://www.worldairports.se/pages/airport.php?
ICAO=KFRI

Runways:

(A) RW 04 length 4503 ft width 100 ft
---- / hdg 44

(B) RW 22 length 4503 ft width 100 ft
---- / hdg 224

Location; KFRI
Day. 11 / Time. 12.56 Zulu
* Altimeter: 30.32
* Temperature: -06° c. -21.2°f.
* Wind from: 250° Speed 05 kn.
Dewpoint: -10° c.
Visibility: 10 Statute Miles.
Clouds: Clear (automated report).

KFRI 111256Z AUTO 25005KT 10SM CLR M06/M10 A3032 RMK AO2 SLP280 T10591096


Wind From 250°
Speed 05 kn.

 
 
jpsmedia worldairports.se 2019   terms of use